Flight Track Log - Related Links

Times and Time Zones

All times are in EDT time to prevent confusion due to time zone crossing. See the CES5522 flight status page for this flight to view local times or setup timezone preferences in your user account.

Time Position Orientation Groundspeed Altitude Reporting Facility
EDT Latitude Longitude Course Direction KTS MPH feet Rate Location/Type
Sun 07:15:00 AM 34.5895 120.8579 167° South  Level Estimated
Sun 07:16:00 AM 34.4963 120.8842 167° South  Level Estimated
Sun 07:17:00 AM 34.4030 120.9105 167° South  Level Estimated
Sun 07:18:00 AM 34.3098 120.9366 167° South  Level Estimated
Sun 07:19:00 AM 34.2166 120.9627 167° South  Level Estimated
Sun 07:20:00 AM 34.1234 120.9888 167° South  Level Estimated
Sun 07:21:00 AM 34.0302 121.0148 167° South  Level Estimated
Sun 07:22:00 AM 33.9369 121.0407 167° South  Level Estimated
Sun 07:23:00 AM 33.8437 121.0666 167° South  Level Estimated
Sun 07:24:00 AM 33.7504 121.0924 167° South  Level Estimated
Sun 07:25:00 AM 33.6572 121.1182 167° South  Level Estimated
Sun 07:26:00 AM 33.5639 121.1439 167° South  Level Estimated
Sun 07:27:00 AM 33.4707 121.1695 167° South  Level Estimated
Sun 07:28:00 AM 33.3774 121.1951 167° South  Level Estimated
Sun 07:29:00 AM 33.2841 121.2207 167° South  Level Estimated
Sun 07:30:00 AM 33.1909 121.2462 167° South  Level Estimated
Sun 07:31:00 AM 33.0976 121.2716 167° South  Level Estimated
Sun 07:32:00 AM 33.0043 121.2970 167° South  Level Estimated
Sun 07:33:00 AM 32.9110 121.3223 167° South  Level Estimated
Sun 07:34:00 AM 32.8177 121.3476 167° South  Level Estimated
Sun 07:35:00 AM 32.7244 121.3728 167° South  Level Estimated
Sun 07:36:00 AM 32.6311 121.3980 167° South  Level Estimated
Sun 07:37:00 AM 32.5378 121.4231 167° South  Level Estimated
Sun 07:38:00 AM 32.4445 121.4482 167° South  Level Estimated
Sun 07:39:00 AM 32.3511 121.4732 167° South  Level Estimated
Sun 07:40:00 AM 32.2578 121.4981 167° South  Level Estimated
Sun 07:41:00 AM 32.1645 121.5230 167° South  Level Estimated
Sun 07:42:00 AM 32.0711 121.5479 167° South  Level Estimated
Sun 07:43:00 AM 31.9778 121.5727 167° South  Level Estimated
Sun 07:44:00 AM 31.8844 121.5975 167° South  Level Estimated
Sun 07:45:00 AM 31.7911 121.6222 167° South  Level Estimated
Sun 07:46:00 AM 31.6977 121.6468 167° South  Level Estimated
Sun 07:47:00 AM 31.6044 121.6714 167° South  Level Estimated
Sun 07:48:00 AM 31.5110 121.6960 167° South  Level Estimated
Sun 07:49:00 AM 31.4176 121.7205 167° South  Level Estimated
Sun 07:50:00 AM 31.3242 121.7450 167° South  Level Estimated
Sun 07:51:00 AM 31.2309 121.7694 167° South  Level Estimated
Sun 07:52:00 AM 31.1428 121.7924 167° South  Level Estimated
Sun 07:53:00 AM 31.1428 121.7924 North  Level Estimated
Sun 07:54:00 AM 31.1428 121.7924 North  Level Estimated
Sun 07:55:00 AM 31.1428 121.7924 North  Level Estimated
Sun 07:56:00 AM 31.1428 121.7924 North  Level Estimated
Sun 07:57:00 AM 31.1428 121.7924 North  Level Estimated
Sun 07:58:00 AM 31.1428 121.7924 North  Level Estimated
Sun 07:59:00 AM 31.1428 121.7924 North  Level Estimated
Sun 08:00:00 AM 31.1428 121.7924 North  Level Estimated
Sun 08:01:00 AM 31.1428 121.7924 North  Level Estimated
Sun 08:02:00 AM 31.1428 121.7924 North  Level Estimated
Sun 08:03:00 AM 31.1428 121.7924 North  Level Estimated
Sun 08:04:00 AM 31.1428 121.7924 North  Level Estimated
Sun 08:05:00 AM 31.1428 121.7924 North  Level Estimated
Sun 08:06:00 AM 31.1428 121.7924 North  Level Estimated
Sun 08:07:00 AM 31.1428 121.7924 North  Level Estimated

Login

Don't have an account? Register now (free) for customized features, flight alerts, and more!